This is the latest recevied weather packets stored in our database for station/object PU3XGS-13. If no packets are shown the sender has not sent any weather packets the latest 10 day(s).
| Time | Temp. | Humidity | Pressure | Rain* | Wind** | Luminosity | Snow |
|---|---|---|---|---|---|---|---|
| 1777431392 | 15° C | 61% | 1016.6 hPa | - | - | - | - |
| 1777428992 | 17.22° C | 54% | 1016.9 hPa | - | - | - | - |
| 1777426592 | 17.78° C | 54% | 1016.7 hPa | - | - | - | - |
| 1777424191 | 18.33° C | 51% | 1016.8 hPa | - | - | - | - |
| 1777421792 | 18.89° C | 52% | 1016.9 hPa | - | - | - | - |
| 1777419391 | 17.22° C | 55% | 1016.8 hPa | - | - | - | - |
| 1777416992 | 20° C | 46% | 1016.4 hPa | - | - | - | - |
| 1777414592 | 21.11° C | 44% | 1016.3 hPa | - | - | - | - |
| 1777412192 | 21.11° C | 41% | 1016 hPa | - | - | - | - |
| 1777409792 | 21.67° C | 37% | 1015.8 hPa | - | - | - | - |
| 1777407392 | 21.67° C | 35% | 1015.7 hPa | - | - | - | - |
| 1777404992 | 22.78° C | 32% | 1015.9 hPa | - | - | - | - |
| 1777402592 | 23.89° C | 30% | 1016 hPa | - | - | - | - |
| 1777400191 | 25° C | 28% | 1016.4 hPa | - | - | - | - |
| 1777397792 | 25° C | 27% | 1016.6 hPa | - | - | - | - |
| 1777395391 | 25.56° C | 27% | 1017.1 hPa | - | - | - | - |
| 1777392992 | 26.11° C | 26% | 1018 hPa | - | - | - | - |
| 1777388192 | 25° C | 30% | 1019.4 hPa | - | - | - | - |
| 1777385791 | 23.33° C | 36% | 1019.9 hPa | - | - | - | - |
| 1777383392 | 22.22° C | 40% | 1020.4 hPa | - | - | - | - |
| 1777380992 | 20.56° C | 44% | 1020.4 hPa | - | - | - | - |
| 1777378592 | 17.78° C | 50% | 1020.5 hPa | - | - | - | - |
| 1777376191 | 16.67° C | 52% | 1020.3 hPa | - | - | - | - |
| 1777373791 | 18.89° C | 45% | 1019.7 hPa | - | - | - | - |
| 1777371391 | 15° C | 54% | 1019.5 hPa | - | - | - | - |
* Rain since midnight (hover to see other rain measurements)
** Current wind speed in m/s (hover to see current wind gust speed)